Bristolville, Ohio
Current Conditions -  °F | °C
As of 11:51 AM on Friday 24 Oct 2014 (Local Time) from KYNG Reporting Station
Broken Clouds Broken Clouds  
Wind Chill: 55°   Ceiling: 25000
Heat Index: 55°   Visibility: 10mi
Dew Point: 41°   Wind: 8mph
Humidity: 59%   Direction: 280°W
Pressure: 30.07"   Gusts: NA
Location:  41.39°N, 80.87°W
Report Text: KYNG 241551Z 28007KT 10SM FEW027 BKN250 13/05 A3007 RMK AO2 SLP187 T01280050
Loading
Personal Weather Stations






























Interactive Weather Map
Tropical Storm Tracking
New forecast layout! Learn more

10-Day Weather Forecast

Advertisements
Track Severe Weather on mobile